createdAt,value
2017-11-30T00:01:43.116Z,20.40
2017-11-30T00:04:09.967Z,21.52
2017-11-30T00:06:36.813Z,21.77
2017-11-30T00:09:03.696Z,21.00
2017-11-30T00:11:30.524Z,20.70
2017-11-30T00:13:57.398Z,21.20
2017-11-30T00:16:24.226Z,19.65
2017-11-30T00:18:51.047Z,21.00
2017-11-30T00:21:17.862Z,20.95
2017-11-30T00:23:44.705Z,20.50
2017-11-30T00:26:11.781Z,20.75
2017-11-30T00:28:38.650Z,20.35
2017-11-30T00:31:05.493Z,19.77
2017-11-30T00:33:32.287Z,21.45
2017-11-30T00:35:59.103Z,21.60
2017-11-30T00:38:25.932Z,20.75
2017-11-30T00:40:52.784Z,21.25
2017-11-30T00:43:25.614Z,21.30
2017-11-30T00:45:52.403Z,21.00
2017-11-30T00:48:19.505Z,20.60
2017-11-30T00:50:46.356Z,21.60
2017-11-30T00:53:13.196Z,22.42
2017-11-30T00:55:40.046Z,21.77
2017-11-30T00:58:06.856Z,22.30
2017-11-30T01:00:33.690Z,22.20
2017-11-30T01:03:00.500Z,22.30
2017-11-30T01:05:27.348Z,21.75
2017-11-30T01:07:54.170Z,22.48
2017-11-30T01:10:20.979Z,22.20
2017-11-30T01:12:47.825Z,22.05
2017-11-30T01:15:14.652Z,21.67
2017-11-30T01:17:41.444Z,22.75
2017-11-30T01:20:08.568Z,22.90
2017-11-30T01:22:35.384Z,23.25
2017-11-30T01:25:02.180Z,23.25
2017-11-30T01:27:29.065Z,23.15
2017-11-30T01:29:55.897Z,22.30
2017-11-30T01:32:22.765Z,23.42
2017-11-30T01:34:49.632Z,22.85
2017-11-30T01:37:16.471Z,22.87
2017-11-30T01:39:43.263Z,24.00
2017-11-30T01:42:10.108Z,24.65
2017-11-30T01:44:36.907Z,24.50
2017-11-30T01:47:03.699Z,25.75
2017-11-30T01:49:30.787Z,24.67
2017-11-30T01:51:57.574Z,24.65
2017-11-30T01:54:24.412Z,24.75
2017-11-30T01:56:51.262Z,24.80
2017-11-30T01:59:18.092Z,24.00
2017-11-30T02:01:44.884Z,24.87
2017-11-30T02:04:11.756Z,24.10
2017-11-30T02:06:38.599Z,25.20
2017-11-30T02:09:05.395Z,25.20
2017-11-30T02:11:32.241Z,25.02
2017-11-30T02:13:59.056Z,25.15
2017-11-30T02:16:25.893Z,26.75
2017-11-30T02:18:52.744Z,26.67
2017-11-30T02:21:19.847Z,27.65
2017-11-30T02:23:46.668Z,27.40
2017-11-30T02:26:13.533Z,25.83
2017-11-30T02:28:40.351Z,27.27
2017-11-30T02:31:07.188Z,27.70
2017-11-30T02:33:34.047Z,27.40
2017-11-30T02:36:00.868Z,27.62
2017-11-30T02:38:27.756Z,25.42
2017-11-30T02:40:54.592Z,26.02
2017-11-30T02:43:21.422Z,26.52
2017-11-30T02:45:48.285Z,26.58
2017-11-30T02:48:15.115Z,26.60
2017-11-30T02:50:41.912Z,27.20
2017-11-30T02:53:08.703Z,26.53
2017-11-30T02:55:35.557Z,27.30
2017-11-30T02:58:02.351Z,27.20
2017-11-30T03:00:29.167Z,26.90
2017-11-30T03:02:56.011Z,26.77
2017-11-30T03:05:22.845Z,27.48
2017-11-30T03:07:49.696Z,28.38
2017-11-30T03:10:16.566Z,27.73
2017-11-30T03:12:43.400Z,26.95
2017-11-30T03:15:10.217Z,26.58
2017-11-30T03:17:37.072Z,28.15
2017-11-30T03:20:03.875Z,28.02
2017-11-30T03:22:30.712Z,30.50
2017-11-30T03:24:57.572Z,29.00
2017-11-30T03:27:24.396Z,29.23
2017-11-30T03:29:51.230Z,29.08
2017-11-30T03:32:18.296Z,30.10
2017-11-30T03:34:45.127Z,29.73
2017-11-30T03:37:11.925Z,30.02
2017-11-30T03:39:38.765Z,30.10
2017-11-30T03:42:05.555Z,28.92
2017-11-30T03:44:32.722Z,30.05
2017-11-30T03:46:59.572Z,30.47
2017-11-30T03:49:26.355Z,30.30
2017-11-30T03:51:53.152Z,31.23
2017-11-30T03:54:19.968Z,28.83
2017-11-30T03:56:46.799Z,30.95
2017-11-30T03:59:13.881Z,30.10
2017-11-30T04:01:40.699Z,30.20
2017-11-30T04:04:07.520Z,29.83
2017-11-30T04:06:34.335Z,28.55
2017-11-30T04:09:01.159Z,28.75
2017-11-30T04:11:28.001Z,30.98
2017-11-30T04:13:54.812Z,31.25
2017-11-30T04:16:22.040Z,31.35
2017-11-30T04:18:48.867Z,31.25
2017-11-30T04:21:15.883Z,31.30
2017-11-30T04:23:42.699Z,31.17
2017-11-30T04:26:09.495Z,31.67
2017-11-30T04:28:36.294Z,31.50
2017-11-30T04:31:03.117Z,31.77
2017-11-30T04:33:29.952Z,33.38
2017-11-30T04:35:56.754Z,33.20
2017-11-30T04:38:23.621Z,34.25
2017-11-30T04:40:50.440Z,32.67
2017-11-30T04:43:17.230Z,33.28
2017-11-30T04:45:44.145Z,33.10
2017-11-30T04:48:10.979Z,32.45
2017-11-30T04:50:37.804Z,34.28
2017-11-30T04:53:04.629Z,34.40
2017-11-30T04:55:31.434Z,34.03
2017-11-30T04:57:58.530Z,32.65
2017-11-30T05:00:25.376Z,35.00
2017-11-30T05:02:52.179Z,34.27
2017-11-30T05:05:19.007Z,33.27
2017-11-30T05:07:45.901Z,34.30
2017-11-30T05:10:12.706Z,33.55
2017-11-30T05:12:39.495Z,32.85
2017-11-30T05:15:06.352Z,33.13
2017-11-30T05:17:33.147Z,32.50
2017-11-30T05:19:59.970Z,33.33
2017-11-30T05:22:26.805Z,32.05
2017-11-30T05:24:53.637Z,31.70
2017-11-30T05:27:20.464Z,31.92
2017-11-30T05:29:47.316Z,31.75
2017-11-30T05:32:14.108Z,30.90
2017-11-30T05:34:40.929Z,30.40
2017-11-30T05:37:07.782Z,31.73
2017-11-30T05:39:34.596Z,30.88
2017-11-30T05:42:01.420Z,30.12
2017-11-30T05:44:28.228Z,30.20
2017-11-30T05:46:55.108Z,29.25
2017-11-30T05:49:21.951Z,31.40
2017-11-30T05:51:48.759Z,32.10
2017-11-30T05:54:15.593Z,31.77
2017-11-30T05:56:42.421Z,30.17
2017-11-30T05:59:09.230Z,32.30
2017-11-30T06:01:36.039Z,33.00
2017-11-30T06:04:02.843Z,30.45
2017-11-30T06:06:29.668Z,30.65
2017-11-30T06:08:56.496Z,31.15
2017-11-30T06:11:23.316Z,32.05
2017-11-30T06:13:50.166Z,31.80
2017-11-30T06:16:16.977Z,31.95
2017-11-30T06:18:43.768Z,31.37
2017-11-30T06:21:10.595Z,32.60
2017-11-30T06:23:37.424Z,31.00
2017-11-30T06:26:04.233Z,30.67
2017-11-30T06:28:31.084Z,32.00
2017-11-30T06:30:57.899Z,31.40
2017-11-30T06:33:24.694Z,33.10
2017-11-30T06:35:51.547Z,31.30
2017-11-30T06:38:18.373Z,30.95
2017-11-30T06:40:45.159Z,30.30
2017-11-30T06:43:12.008Z,31.10
2017-11-30T06:45:39.112Z,32.05
2017-11-30T06:48:05.913Z,30.85
2017-11-30T06:50:32.765Z,31.10
2017-11-30T06:52:59.813Z,31.00
2017-11-30T06:55:26.633Z,32.10
2017-11-30T06:57:53.453Z,31.20
2017-11-30T07:00:20.289Z,31.27
2017-11-30T07:02:47.136Z,31.02
2017-11-30T07:05:13.984Z,31.37
2017-11-30T07:07:40.826Z,29.45
2017-11-30T07:10:07.624Z,32.72
2017-11-30T07:12:34.497Z,31.23
2017-11-30T07:15:01.324Z,30.80
2017-11-30T07:17:28.154Z,30.37
2017-11-30T07:19:54.967Z,29.75
2017-11-30T07:22:21.765Z,30.55
2017-11-30T07:24:48.559Z,30.40
2017-11-30T07:27:15.407Z,33.63
2017-11-30T07:29:42.261Z,33.35
2017-11-30T07:32:09.059Z,31.77
2017-11-30T07:34:36.195Z,30.20
2017-11-30T07:37:03.057Z,31.60
2017-11-30T07:39:30.171Z,31.92
2017-11-30T07:41:57.030Z,31.73
2017-11-30T07:44:23.896Z,33.00
2017-11-30T07:46:50.705Z,29.45
2017-11-30T07:49:17.531Z,30.50
2017-11-30T07:51:44.345Z,28.98
2017-11-30T07:54:11.128Z,28.55
2017-11-30T07:56:37.977Z,28.50
2017-11-30T07:59:04.784Z,28.25
2017-11-30T08:01:31.600Z,27.65
2017-11-30T08:03:58.706Z,29.80
2017-11-30T08:06:25.556Z,27.85
2017-11-30T08:08:52.380Z,28.40
2017-11-30T08:11:19.229Z,29.58
2017-11-30T08:13:46.028Z,27.52
2017-11-30T08:16:12.833Z,27.40
2017-11-30T08:18:39.673Z,27.60
2017-11-30T08:21:06.467Z,27.77
2017-11-30T08:23:33.252Z,26.08
2017-11-30T08:26:00.096Z,26.52
2017-11-30T08:28:26.934Z,25.98
2017-11-30T08:30:53.994Z,27.00
2017-11-30T08:33:20.827Z,27.17
2017-11-30T08:35:47.657Z,25.30
2017-11-30T08:38:14.477Z,26.33
2017-11-30T08:40:41.297Z,25.83
2017-11-30T08:43:08.152Z,25.58
2017-11-30T08:45:35.353Z,25.55
2017-11-30T08:48:02.164Z,24.40
2017-11-30T08:50:28.996Z,26.00
2017-11-30T08:52:55.805Z,25.08
2017-11-30T08:55:22.636Z,24.00
2017-11-30T08:57:49.441Z,24.23
2017-11-30T09:00:16.278Z,24.02
2017-11-30T09:02:43.090Z,25.75
2017-11-30T09:05:09.895Z,24.67
2017-11-30T09:07:36.720Z,25.25
2017-11-30T09:10:03.582Z,23.85
2017-11-30T09:12:30.422Z,24.17
2017-11-30T09:14:57.570Z,23.70
2017-11-30T09:17:24.384Z,24.70
2017-11-30T09:19:51.177Z,23.48
2017-11-30T09:22:17.997Z,25.40
2017-11-30T09:24:45.020Z,25.17
2017-11-30T09:27:11.921Z,26.17
2017-11-30T09:29:38.704Z,24.45
2017-11-30T09:32:05.548Z,24.30
2017-11-30T09:34:32.356Z,24.85
2017-11-30T09:36:59.182Z,25.87
2017-11-30T09:39:26.020Z,26.10
2017-11-30T09:41:52.803Z,26.27
2017-11-30T09:44:19.631Z,24.92
2017-11-30T09:46:46.501Z,25.48
2017-11-30T09:49:13.331Z,23.98
2017-11-30T09:51:40.123Z,24.35
2017-11-30T09:54:06.961Z,23.60
2017-11-30T09:56:33.793Z,24.37
2017-11-30T09:59:00.601Z,21.95
2017-11-30T10:01:27.463Z,22.30
2017-11-30T10:03:54.272Z,22.62
2017-11-30T10:06:21.092Z,22.27
2017-11-30T10:08:47.915Z,22.57
2017-11-30T10:11:14.712Z,22.70
2017-11-30T10:13:41.498Z,23.50
2017-11-30T10:16:08.318Z,23.70
2017-11-30T10:18:35.103Z,22.45
2017-11-30T10:21:01.950Z,22.60
2017-11-30T10:23:28.806Z,23.73
2017-11-30T10:25:55.662Z,22.08
2017-11-30T10:28:22.484Z,23.20
2017-11-30T10:30:49.334Z,23.45
2017-11-30T10:33:16.185Z,23.75
2017-11-30T10:35:42.971Z,22.92
2017-11-30T10:38:09.833Z,23.00
2017-11-30T10:40:36.632Z,22.00
2017-11-30T10:43:03.432Z,22.77
2017-11-30T10:45:30.573Z,22.73
2017-11-30T10:47:57.365Z,23.33
2017-11-30T10:50:24.198Z,22.77
2017-11-30T10:52:51.045Z,22.67
2017-11-30T10:55:17.865Z,22.00
2017-11-30T10:57:44.681Z,21.33
2017-11-30T11:00:11.504Z,21.05
2017-11-30T11:02:38.351Z,21.90
2017-11-30T11:05:05.189Z,21.48
2017-11-30T11:07:32.000Z,21.15
2017-11-30T11:09:58.804Z,21.58
2017-11-30T11:12:25.604Z,20.08
2017-11-30T11:14:52.427Z,20.23
2017-11-30T11:17:19.525Z,20.42
2017-11-30T11:19:46.355Z,21.27
2017-11-30T11:22:13.212Z,20.10
2017-11-30T11:24:40.046Z,19.87
2017-11-30T11:27:06.868Z,21.27
2017-11-30T11:29:33.717Z,20.48
2017-11-30T11:32:00.530Z,19.92
2017-11-30T11:34:27.315Z,20.15
2017-11-30T11:36:54.137Z,19.57
2017-11-30T11:39:21.186Z,21.00
2017-11-30T11:41:48.004Z,21.05
2017-11-30T11:44:14.833Z,20.50
2017-11-30T11:46:41.637Z,21.47
2017-11-30T11:49:08.472Z,21.23
2017-11-30T11:51:35.317Z,21.10
2017-11-30T11:54:02.141Z,19.75
2017-11-30T11:56:28.933Z,21.10
2017-11-30T11:58:55.789Z,21.50
2017-11-30T12:01:22.583Z,21.95
2017-11-30T12:03:49.644Z,26.30
2017-11-30T12:06:16.500Z,22.40
2017-11-30T12:08:43.299Z,21.52
2017-11-30T12:11:10.120Z,22.20
2017-11-30T12:13:36.932Z,21.95
2017-11-30T12:16:03.752Z,22.27
2017-11-30T12:18:30.570Z,21.57
2017-11-30T12:20:57.381Z,22.10
2017-11-30T12:23:24.183Z,21.55
2017-11-30T12:25:50.963Z,21.80
2017-11-30T12:28:17.815Z,21.98
2017-11-30T12:30:44.611Z,20.88
2017-11-30T12:33:11.430Z,19.50
2017-11-30T12:35:38.285Z,20.85
2017-11-30T12:38:05.091Z,20.75
2017-11-30T12:40:31.922Z,20.85
2017-11-30T12:42:58.761Z,19.83
2017-11-30T12:45:25.592Z,20.10
2017-11-30T12:47:52.404Z,20.73
2017-11-30T12:50:19.215Z,20.08
2017-11-30T12:52:46.057Z,21.15
2017-11-30T12:55:12.843Z,21.30
2017-11-30T12:57:39.667Z,19.55
2017-11-30T13:00:06.474Z,18.92
2017-11-30T13:02:33.298Z,19.83
2017-11-30T13:05:00.159Z,20.58
2017-11-30T13:07:27.259Z,20.55
2017-11-30T13:09:54.412Z,19.60
2017-11-30T13:12:21.239Z,21.02
2017-11-30T13:14:48.068Z,21.08
2017-11-30T13:17:14.881Z,20.37
2017-11-30T13:19:41.739Z,19.87
2017-11-30T13:22:08.551Z,19.87
2017-11-30T13:24:35.675Z,21.00
2017-11-30T13:27:02.493Z,20.40
2017-11-30T13:29:29.301Z,19.90
2017-11-30T13:31:56.136Z,21.10
2017-11-30T13:34:22.983Z,20.37
2017-11-30T13:36:49.808Z,21.00
2017-11-30T13:39:16.585Z,20.55
2017-11-30T13:41:43.435Z,20.33
2017-11-30T13:44:10.251Z,21.30
2017-11-30T13:46:37.368Z,21.02
2017-11-30T13:49:04.213Z,20.55
2017-11-30T13:51:30.998Z,21.37
2017-11-30T13:53:57.812Z,21.27
2017-11-30T13:56:24.661Z,22.62
2017-11-30T13:58:51.789Z,21.60
2017-11-30T14:01:18.569Z,22.50
2017-11-30T14:03:45.406Z,22.70
2017-11-30T14:06:12.217Z,23.90
2017-11-30T14:08:39.002Z,22.62
2017-11-30T14:11:05.818Z,23.35
2017-11-30T14:13:32.946Z,23.90
2017-11-30T14:15:59.992Z,23.60
2017-11-30T14:18:26.806Z,24.70
2017-11-30T14:20:53.603Z,25.00
2017-11-30T14:23:20.392Z,25.33
2017-11-30T14:25:47.239Z,25.05
2017-11-30T14:28:14.027Z,25.42
2017-11-30T14:30:40.834Z,25.77
2017-11-30T14:33:07.691Z,24.37
2017-11-30T14:35:34.844Z,25.17
2017-11-30T14:38:01.682Z,26.75
2017-11-30T14:40:28.519Z,25.50
2017-11-30T14:42:55.370Z,25.80
2017-11-30T14:45:22.170Z,27.00
2017-11-30T14:47:49.028Z,25.45
2017-11-30T14:50:15.822Z,27.67
2017-11-30T14:52:42.654Z,27.33
2017-11-30T14:55:09.478Z,26.70
2017-11-30T14:57:36.635Z,27.77
2017-11-30T15:00:03.463Z,29.15
2017-11-30T15:02:30.290Z,27.27
2017-11-30T15:04:57.127Z,27.70
2017-11-30T15:07:23.956Z,27.27
2017-11-30T15:09:51.230Z,27.45
2017-11-30T15:12:18.122Z,28.03
2017-11-30T15:14:44.984Z,27.90
2017-11-30T15:17:11.850Z,26.85
2017-11-30T15:19:38.630Z,27.33
2017-11-30T15:22:05.678Z,27.05
2017-11-30T15:24:32.531Z,26.80
2017-11-30T15:26:59.355Z,27.35
2017-11-30T15:29:26.177Z,25.55
2017-11-30T15:31:53.021Z,25.60
2017-11-30T15:34:19.843Z,25.25
2017-11-30T15:36:46.668Z,26.08
2017-11-30T15:39:13.486Z,26.25
2017-11-30T15:41:40.339Z,26.00
2017-11-30T15:44:07.141Z,25.65
2017-11-30T15:46:34.258Z,25.85
2017-11-30T15:49:01.045Z,26.30
2017-11-30T15:51:27.875Z,26.35
2017-11-30T15:53:55.051Z,25.00
2017-11-30T15:56:22.331Z,25.55
2017-11-30T15:58:49.136Z,26.20
2017-11-30T16:01:15.945Z,25.70
2017-11-30T16:03:42.743Z,25.80
2017-11-30T16:06:09.778Z,25.95
2017-11-30T16:08:36.632Z,26.60
2017-11-30T16:11:03.448Z,25.90
2017-11-30T16:13:30.237Z,26.70
2017-11-30T16:15:57.091Z,26.25
2017-11-30T16:18:23.905Z,26.60
2017-11-30T16:20:50.739Z,27.30
2017-11-30T16:23:17.555Z,26.25
2017-11-30T16:25:44.394Z,26.58
2017-11-30T16:28:11.197Z,24.85
2017-11-30T16:30:38.067Z,24.80
2017-11-30T16:33:04.902Z,25.02
2017-11-30T16:35:31.715Z,24.75
2017-11-30T16:37:58.568Z,24.35
2017-11-30T16:40:25.355Z,24.50
2017-11-30T16:42:52.174Z,24.30
2017-11-30T16:45:18.993Z,22.60
2017-11-30T16:47:45.791Z,24.73
2017-11-30T16:50:12.631Z,24.13
2017-11-30T16:52:39.442Z,24.60
2017-11-30T16:55:06.267Z,24.60
2017-11-30T16:57:33.104Z,23.70
2017-11-30T16:59:59.935Z,22.77
2017-11-30T17:02:26.763Z,22.20
2017-11-30T17:04:53.558Z,22.45
2017-11-30T17:07:20.406Z,21.58
2017-11-30T17:09:47.239Z,22.10
2017-11-30T17:12:14.035Z,20.55
2017-11-30T17:14:40.885Z,21.58
2017-11-30T17:17:07.711Z,20.95
2017-11-30T17:19:34.761Z,22.40
2017-11-30T17:22:01.634Z,22.60
2017-11-30T17:24:28.515Z,21.70
2017-11-30T17:26:55.342Z,20.98
2017-11-30T17:29:22.167Z,22.98
2017-11-30T17:31:49.285Z,21.00
2017-11-30T17:34:16.085Z,20.50
2017-11-30T17:36:42.929Z,20.67
2017-11-30T17:39:09.750Z,21.42
2017-11-30T17:41:36.547Z,21.00
2017-11-30T17:44:03.602Z,20.23
2017-11-30T17:46:30.451Z,21.67
2017-11-30T17:48:57.371Z,21.90
2017-11-30T17:51:24.190Z,22.73
2017-11-30T17:53:50.994Z,21.73
2017-11-30T17:56:17.832Z,20.80
2017-11-30T17:58:44.649Z,20.40
2017-11-30T18:01:11.480Z,19.58
2017-11-30T18:03:38.265Z,18.67
2017-11-30T18:06:05.218Z,19.70
2017-11-30T18:08:32.051Z,18.95
2017-11-30T18:10:58.847Z,20.00
2017-11-30T18:13:25.691Z,19.87
2017-11-30T18:15:52.510Z,19.55
2017-11-30T18:18:19.332Z,19.63
2017-11-30T18:20:46.192Z,19.73
2017-11-30T18:23:12.989Z,19.90
2017-11-30T18:25:40.149Z,20.02
2017-11-30T18:28:06.992Z,19.37
2017-11-30T18:30:33.863Z,19.80
2017-11-30T18:33:00.680Z,19.50
2017-11-30T18:35:27.548Z,39.57
2017-11-30T18:37:54.667Z,39.60
2017-11-30T18:40:21.487Z,26.70
2017-11-30T18:42:48.371Z,21.73
2017-11-30T18:45:15.182Z,21.02
2017-11-30T18:47:41.994Z,31.20
2017-11-30T18:50:08.813Z,23.20
2017-11-30T18:52:35.610Z,19.52
2017-11-30T18:55:02.402Z,19.45
2017-11-30T18:57:29.222Z,18.12
2017-11-30T18:59:56.014Z,19.08
2017-11-30T19:02:22.814Z,18.27
2017-11-30T19:04:49.637Z,17.75
2017-11-30T19:07:16.448Z,18.42
2017-11-30T19:09:43.236Z,18.75
2017-11-30T19:12:10.062Z,18.08
2017-11-30T19:14:36.858Z,16.80
2017-11-30T19:17:03.680Z,17.58
2017-11-30T19:19:30.490Z,18.92
2017-11-30T19:21:57.278Z,17.90
2017-11-30T19:24:24.123Z,18.00
2017-11-30T19:26:51.826Z,18.20
2017-11-30T19:29:18.985Z,17.90
2017-11-30T19:31:45.781Z,17.10
2017-11-30T19:34:12.625Z,18.65
2017-11-30T19:36:39.439Z,18.85
2017-11-30T19:39:06.230Z,18.00
2017-11-30T19:41:33.037Z,18.50
2017-11-30T19:43:59.867Z,19.05
2017-11-30T19:46:26.695Z,19.23
2017-11-30T19:48:53.526Z,18.83
2017-11-30T19:51:20.335Z,19.40
2017-11-30T19:53:47.163Z,18.80
2017-11-30T19:56:14.025Z,17.62
2017-11-30T19:58:40.843Z,17.33
2017-11-30T20:01:07.680Z,17.58
2017-11-30T20:03:34.540Z,18.42
2017-11-30T20:06:01.346Z,17.52
2017-11-30T20:08:28.136Z,18.45
2017-11-30T20:10:54.956Z,18.40
2017-11-30T20:13:21.759Z,18.10
2017-11-30T20:15:48.619Z,17.45
2017-11-30T20:18:15.752Z,18.50
2017-11-30T20:20:42.572Z,17.70
2017-11-30T20:23:09.367Z,18.90
2017-11-30T20:25:36.484Z,18.27
2017-11-30T20:28:03.310Z,18.55
2017-11-30T20:30:30.105Z,18.05
2017-11-30T20:32:56.958Z,17.80
2017-11-30T20:35:23.749Z,24.70
2017-11-30T20:37:50.570Z,19.63
2017-11-30T20:40:17.378Z,19.05
2017-11-30T20:42:44.216Z,18.45
2017-11-30T20:45:11.047Z,18.77
2017-11-30T20:47:37.883Z,18.60
2017-11-30T20:50:04.699Z,20.25
2017-11-30T20:52:31.516Z,19.87
2017-11-30T20:54:58.344Z,20.00
2017-11-30T20:57:25.199Z,21.30
2017-11-30T20:59:52.054Z,21.25
2017-11-30T21:02:18.904Z,22.23
2017-11-30T21:04:45.723Z,21.80
2017-11-30T21:07:12.516Z,20.98
2017-11-30T21:09:39.326Z,20.75
2017-11-30T21:12:06.135Z,20.55
2017-11-30T21:14:33.241Z,21.05
2017-11-30T21:17:00.058Z,21.65
2017-11-30T21:19:26.883Z,20.10
2017-11-30T21:21:53.666Z,21.02
2017-11-30T21:24:20.821Z,20.33
2017-11-30T21:26:47.654Z,19.85
2017-11-30T21:29:14.480Z,20.25
2017-11-30T21:31:41.676Z,21.75
2017-11-30T21:34:08.524Z,22.05
2017-11-30T21:36:35.319Z,22.20
2017-11-30T21:39:02.411Z,21.95
2017-11-30T21:41:29.218Z,22.75
2017-11-30T21:43:56.049Z,24.33
2017-11-30T21:46:23.534Z,31.20
2017-11-30T21:48:50.326Z,32.85
2017-11-30T21:51:17.129Z,24.40
2017-11-30T21:53:43.995Z,37.00
2017-11-30T21:56:10.815Z,34.78
2017-11-30T21:58:37.598Z,36.00
2017-11-30T22:01:04.460Z,23.15
2017-11-30T22:03:31.270Z,26.92
2017-11-30T22:05:58.079Z,23.00
2017-11-30T22:08:24.894Z,23.95
2017-11-30T22:10:51.697Z,22.20
2017-11-30T22:13:18.532Z,20.20
2017-11-30T22:15:45.376Z,21.10
2017-11-30T22:18:12.192Z,21.17
2017-11-30T22:20:39.052Z,19.60
2017-11-30T22:23:05.908Z,19.85
2017-11-30T22:25:32.858Z,19.65
2017-11-30T22:27:59.625Z,19.67
2017-11-30T22:30:26.468Z,18.92
2017-11-30T22:32:53.623Z,21.00
2017-11-30T22:35:20.398Z,19.50
2017-11-30T22:37:47.276Z,19.70
2017-11-30T22:40:14.091Z,19.65
2017-11-30T22:42:40.881Z,20.48
2017-11-30T22:45:07.698Z,20.95
2017-11-30T22:47:34.519Z,20.73
2017-11-30T22:50:01.340Z,20.65
2017-11-30T22:52:28.162Z,19.37
2017-11-30T22:54:54.984Z,20.83
2017-11-30T22:57:21.824Z,20.20
2017-11-30T22:59:48.654Z,20.80
2017-11-30T23:02:15.446Z,19.52
2017-11-30T23:04:42.286Z,20.05
2017-11-30T23:07:09.126Z,19.25
2017-11-30T23:09:35.935Z,19.30
2017-11-30T23:12:02.734Z,18.23
2017-11-30T23:14:29.555Z,20.77
2017-11-30T23:16:56.398Z,19.65
2017-11-30T23:19:23.189Z,19.70
2017-11-30T23:21:50.315Z,18.92
2017-11-30T23:24:17.361Z,19.15
2017-11-30T23:26:44.163Z,19.62
2017-11-30T23:29:10.992Z,19.98
2017-11-30T23:31:37.820Z,19.65
2017-11-30T23:34:04.632Z,21.48
2017-11-30T23:36:31.466Z,20.40
2017-11-30T23:38:58.295Z,19.87
2017-11-30T23:41:25.111Z,20.70
2017-11-30T23:43:52.215Z,21.10
2017-11-30T23:46:19.002Z,22.00
2017-11-30T23:48:46.055Z,20.40
2017-11-30T23:51:12.886Z,21.17
2017-11-30T23:53:39.678Z,19.90
2017-11-30T23:56:06.470Z,20.50
2017-11-30T23:58:33.319Z,20.08
